Time;durP1;ratioP1;P1;durP2;ratioP2;P2;SDS_P1;SDS_P2;PMS_P1;PMS_P2;Temp;Humidity;BMP_temperature;BMP_pressure;BME280_temperature;BME280_humidity;BME280_pressure;Samples;Min_cycle;Max_cycle;Signal;HPM_P1;HPM_P2
2023/07/28 00:01:56;;;;;;;21.45;9.02;;;18.50;99.90;;;;;;5086483;28;20047;-71
2023/07/28 00:04:22;;;;;;;22.13;9.80;;;18.50;99.90;;;;;;5082156;28;20043;-70
2023/07/28 00:06:47;;;;;;;24.67;10.55;;;18.50;99.90;;;;;;5086497;28;20043;-70
2023/07/28 00:09:13;;;;;;;18.40;9.05;;;18.50;99.90;;;;;;5082725;28;20302;-70
2023/07/28 00:11:39;;;;;;;24.45;10.20;;;18.50;99.90;;;;;;5085896;28;20076;-70
2023/07/28 00:14:05;;;;;;;19.17;10.07;;;18.50;99.90;;;;;;5087698;28;20039;-71
2023/07/28 00:16:30;;;;;;;30.35;10.48;;;18.50;99.90;;;;;;5090192;28;20040;-70
2023/07/28 00:18:56;;;;;;;25.10;11.10;;;18.50;99.90;;;;;;5089922;28;20048;-70
2023/07/28 00:21:22;;;;;;;23.55;11.40;;;18.50;99.90;;;;;;5090449;28;20048;-70
2023/07/28 00:23:48;;;;;;;25.33;11.32;;;18.50;99.90;;;;;;5088516;28;20519;-70
2023/07/28 00:26:14;;;;;;;25.33;10.73;;;18.50;99.90;;;;;;5088659;28;20044;-70
2023/07/28 00:28:39;;;;;;;23.08;10.70;;;18.40;99.90;;;;;;5082407;28;20132;-71
2023/07/28 00:31:05;;;;;;;24.60;10.93;;;18.50;99.90;;;;;;5087549;28;20121;-71
2023/07/28 00:33:31;;;;;;;20.50;10.70;;;18.50;99.90;;;;;;5074544;28;20052;-71
2023/07/28 00:35:56;;;;;;;21.00;10.30;;;18.50;99.90;;;;;;5088978;28;20056;-71
2023/07/28 00:38:22;;;;;;;22.30;10.98;;;18.50;99.90;;;;;;5086429;28;20123;-71
2023/07/28 00:40:48;;;;;;;23.05;11.52;;;18.50;99.90;;;;;;5090046;28;20040;-70
2023/07/28 00:43:13;;;;;;;24.02;11.73;;;18.50;99.90;;;;;;5082320;28;20040;-71
2023/07/28 00:45:39;;;;;;;20.98;12.23;;;18.50;99.90;;;;;;5084959;28;20045;-71
2023/07/28 00:48:12;;;;;;;23.48;11.88;;;18.50;99.90;;;;;;5090400;28;20040;-71
2023/07/28 00:50:38;;;;;;;25.45;12.55;;;18.50;99.90;;;;;;5090391;28;20040;-70
2023/07/28 00:53:04;;;;;;;30.60;13.35;;;18.50;99.90;;;;;;5077292;28;20119;-70
2023/07/28 00:55:31;;;;;;;29.38;12.43;;;18.40;99.90;;;;;;5084579;28;20691;-71
2023/07/28 00:57:57;;;;;;;28.23;12.60;;;18.50;99.90;;;;;;5081084;28;20050;-71
2023/07/28 01:00:22;;;;;;;31.67;14.35;;;18.50;99.90;;;;;;5088305;28;20035;-71
2023/07/28 01:02:48;;;;;;;25.63;13.25;;;18.50;99.90;;;;;;5085486;28;20101;-70
2023/07/28 01:05:14;;;;;;;30.10;14.35;;;18.40;99.90;;;;;;5089740;28;20437;-70
2023/07/28 01:07:58;;;;;;;31.30;13.82;;;18.50;99.90;;;;;;5088377;28;20047;-71
2023/07/28 01:10:32;;;;;;;28.25;13.15;;;18.50;99.90;;;;;;5085722;28;20047;-71
2023/07/28 01:12:58;;;;;;;31.45;14.38;;;18.50;99.90;;;;;;5087888;28;20039;-70
2023/07/28 01:15:24;;;;;;;25.33;13.48;;;18.50;99.90;;;;;;5086051;28;20036;-71
2023/07/28 01:17:50;;;;;;;34.42;15.00;;;18.50;99.90;;;;;;5082062;28;20056;-71
2023/07/28 01:20:16;;;;;;;29.65;13.93;;;18.50;99.90;;;;;;5080479;28;20051;-71
2023/07/28 01:23:00;;;;;;;32.67;13.65;;;18.50;99.90;;;;;;5088876;28;20047;-70
2023/07/28 01:26:12;;;;;;;27.83;13.73;;;18.50;99.90;;;;;;5086388;28;20606;-70
2023/07/28 01:28:39;;;;;;;;;;;18.50;99.90;;;;;;5068100;28;20090;-70
2023/07/28 01:31:06;;;;;;;24.38;12.98;;;18.40;99.90;;;;;;5073183;28;19924;-71
2023/07/28 01:33:33;;;;;;;20.90;11.88;;;18.50;99.90;;;;;;5084790;28;20055;-71
2023/07/28 01:36:00;;;;;;;20.10;11.70;;;18.50;99.90;;;;;;5073296;28;20105;-70
2023/07/28 01:38:27;;;;;;;24.92;12.75;;;18.50;99.90;;;;;;5073522;28;20037;-71
2023/07/28 01:40:53;;;;;;;18.02;11.45;;;18.50;99.90;;;;;;5079939;28;20043;-70
2023/07/28 01:43:19;;;;;;;20.83;11.77;;;18.50;99.90;;;;;;5083478;28;20056;-70
2023/07/28 01:45:45;;;;;;;22.45;12.85;;;18.50;99.90;;;;;;5072848;28;20040;-70
2023/07/28 01:48:11;;;;;;;21.58;12.70;;;18.50;99.90;;;;;;5083712;28;20047;-70
2023/07/28 01:50:37;;;;;;;22.27;11.75;;;18.50;99.90;;;;;;5087565;28;20052;-70
2023/07/28 01:53:05;;;;;;;22.90;12.63;;;18.40;99.90;;;;;;5085177;28;20059;-70
2023/07/28 01:55:30;;;;;;;23.90;13.35;;;18.40;99.90;;;;;;5077726;28;20512;-70
2023/07/28 01:57:58;;;;;;;24.88;13.90;;;18.50;99.90;;;;;;5076054;28;20159;-71
2023/07/28 02:00:24;;;;;;;25.17;14.82;;;18.50;99.90;;;;;;5088420;28;20047;-70
2023/07/28 02:02:51;;;;;;;26.52;13.73;;;18.50;99.90;;;;;;5085932;28;20068;-71
2023/07/28 02:05:17;;;;;;;30.70;15.15;;;18.50;99.90;;;;;;5085426;28;20054;-71
2023/07/28 02:07:43;;;;;;;27.05;14.80;;;18.50;99.90;;;;;;5089171;28;20050;-70
2023/07/28 02:10:10;;;;;;;31.65;14.23;;;18.50;99.90;;;;;;5088629;28;20040;-70
2023/07/28 02:12:36;;;;;;;36.30;14.55;;;18.50;99.90;;;;;;5084365;28;20071;-71
2023/07/28 02:15:04;;;;;;;31.42;14.23;;;18.50;99.90;;;;;;5082531;28;20049;-70
2023/07/28 02:17:30;;;;;;;35.97;14.73;;;18.50;99.90;;;;;;5085754;28;20611;-70
2023/07/28 02:19:56;;;;;;;27.55;13.40;;;18.50;99.90;;;;;;5088297;28;20119;-70
2023/07/28 02:22:22;;;;;;;29.35;13.95;;;18.50;99.90;;;;;;5084897;28;20032;-71
2023/07/28 02:24:47;;;;;;;28.85;13.98;;;18.50;99.90;;;;;;5086527;28;20493;-71
2023/07/28 02:27:13;;;;;;;29.10;14.27;;;18.50;99.90;;;;;;5082822;28;20039;-71
2023/07/28 02:29:39;;;;;;;26.92;12.98;;;18.50;99.90;;;;;;5088499;28;20048;-71
2023/07/28 02:32:05;;;;;;;29.98;14.30;;;18.50;99.90;;;;;;5082741;28;20036;-71
2023/07/28 02:34:31;;;;;;;35.05;13.85;;;18.50;99.90;;;;;;5083014;28;20047;-71
2023/07/28 02:36:57;;;;;;;27.08;12.10;;;18.50;99.90;;;;;;5083497;28;20118;-71
2023/07/28 02:39:23;;;;;;;29.17;12.05;;;18.50;99.90;;;;;;5082550;28;20055;-71
2023/07/28 02:41:49;;;;;;;33.30;12.18;;;18.50;99.90;;;;;;5080402;28;20039;-70
2023/07/28 02:44:14;;;;;;;29.75;11.55;;;18.40;99.90;;;;;;5081898;28;20036;-70
2023/07/28 02:46:40;;;;;;;23.75;11.38;;;18.40;99.90;;;;;;5083467;28;20044;-71
2023/07/28 02:49:06;;;;;;;24.60;10.70;;;18.50;99.90;;;;;;5083133;28;20400;-71
2023/07/28 02:51:34;;;;;;;34.40;11.20;;;18.40;99.90;;;;;;5083644;28;20037;-71
2023/07/28 02:54:00;;;;;;;28.98;11.32;;;18.50;99.90;;;;;;5083060;28;20115;-71
2023/07/28 02:56:25;;;;;;;22.92;9.52;;;18.50;99.90;;;;;;5081781;28;20052;-71
2023/07/28 02:58:51;;;;;;;25.67;10.25;;;18.40;99.90;;;;;;5083154;28;20044;-70
2023/07/28 03:01:17;;;;;;;22.98;9.13;;;18.40;99.90;;;;;;5082443;28;20051;-71
2023/07/28 03:03:43;;;;;;;24.20;9.15;;;18.50;99.90;;;;;;5082672;28;20044;-71
2023/07/28 03:06:09;;;;;;;28.48;9.73;;;18.50;99.90;;;;;;5082914;28;20044;-70
2023/07/28 03:08:35;;;;;;;20.63;9.25;;;18.40;99.90;;;;;;5082167;28;20047;-70
2023/07/28 03:11:02;;;;;;;24.27;8.90;;;18.40;99.90;;;;;;5083034;28;20051;-71
2023/07/28 03:13:31;;;;;;;24.23;8.68;;;18.40;99.90;;;;;;5081698;28;20071;-71
2023/07/28 03:15:56;;;;;;;20.67;8.23;;;18.40;99.90;;;;;;5069966;28;20497;-71
2023/07/28 03:18:22;;;;;;;24.95;8.48;;;18.40;99.90;;;;;;5070536;28;20032;-71
2023/07/28 03:20:48;;;;;;;24.08;7.85;;;18.40;99.90;;;;;;5072225;28;20067;-71
2023/07/28 03:23:14;;;;;;;21.13;8.07;;;18.40;99.90;;;;;;5081780;28;20094;-71
2023/07/28 03:25:39;;;;;;;27.23;8.45;;;18.40;99.90;;;;;;5082248;28;20043;-71
2023/07/28 03:28:05;;;;;;;20.20;7.97;;;18.40;99.90;;;;;;5071355;28;20541;-70
2023/07/28 03:30:31;;;;;;;26.15;8.35;;;18.40;99.90;;;;;;5082617;28;20489;-71
2023/07/28 03:32:57;;;;;;;23.00;8.35;;;18.40;99.90;;;;;;5071495;28;20070;-71
2023/07/28 03:35:22;;;;;;;22.15;8.02;;;18.40;99.90;;;;;;5081448;28;20119;-71
2023/07/28 03:37:48;;;;;;;19.17;7.45;;;18.40;99.90;;;;;;5081714;28;20028;-71
2023/07/28 03:40:14;;;;;;;18.90;7.53;;;18.40;99.90;;;;;;5070254;28;20048;-71
2023/07/28 03:42:40;;;;;;;19.98;7.60;;;18.40;99.90;;;;;;5071148;28;20040;-71
2023/07/28 03:45:06;;;;;;;19.45;6.93;;;18.40;99.90;;;;;;5085160;28;20125;-71
2023/07/28 03:47:32;;;;;;;19.27;7.65;;;18.40;99.90;;;;;;5084265;28;20413;-71
2023/07/28 03:49:58;;;;;;;18.30;7.10;;;18.40;99.90;;;;;;5082092;28;20112;-71
2023/07/28 03:52:23;;;;;;;18.25;7.30;;;18.40;99.90;;;;;;5085858;28;20498;-70
2023/07/28 03:54:49;;;;;;;22.35;8.10;;;18.40;99.90;;;;;;5085679;28;20040;-71
2023/07/28 03:57:15;;;;;;;20.20;7.22;;;18.40;99.90;;;;;;5084900;28;20147;-71
2023/07/28 03:59:40;;;;;;;22.80;7.53;;;18.40;99.90;;;;;;5086491;28;20390;-71
2023/07/28 04:02:06;;;;;;;19.65;7.63;;;18.40;99.90;;;;;;5085167;28;20048;-71
2023/07/28 04:04:32;;;;;;;22.48;8.15;;;18.40;99.90;;;;;;5082259;28;20044;-71
2023/07/28 04:06:57;;;;;;;23.98;7.70;;;18.40;99.90;;;;;;5061270;28;20235;-71
2023/07/28 04:09:23;;;;;;;31.30;9.80;;;18.40;99.90;;;;;;5083385;28;20487;-70
2023/07/28 04:11:49;;;;;;;24.58;7.40;;;18.40;99.90;;;;;;5084655;28;20051;-71
2023/07/28 04:14:15;;;;;;;19.27;7.80;;;18.40;99.90;;;;;;5081171;28;20060;-71
2023/07/28 04:16:41;;;;;;;20.27;7.70;;;18.40;99.90;;;;;;5085862;28;20045;-70
2023/07/28 04:19:06;;;;;;;18.95;7.13;;;18.40;99.90;;;;;;5076098;28;20048;-71
2023/07/28 04:21:32;;;;;;;22.13;8.05;;;18.40;99.90;;;;;;5087099;28;20040;-72
2023/07/28 04:23:58;;;;;;;21.70;7.75;;;18.40;99.90;;;;;;5077240;28;20028;-72
2023/07/28 04:26:24;;;;;;;16.42;7.93;;;18.40;99.90;;;;;;5053298;28;20074;-72
2023/07/28 04:28:51;;;;;;;22.02;7.68;;;18.40;99.90;;;;;;5081486;28;20705;-72
2023/07/28 04:31:16;;;;;;;18.33;7.53;;;18.40;99.90;;;;;;5083634;28;20043;-72
2023/07/28 04:33:42;;;;;;;18.33;7.53;;;18.40;99.90;;;;;;5081250;28;20461;-73
2023/07/28 04:36:08;;;;;;;20.38;8.10;;;18.40;99.90;;;;;;5072052;28;20083;-72
2023/07/28 04:38:34;;;;;;;18.38;7.30;;;18.40;99.90;;;;;;5083749;28;20044;-72
2023/07/28 04:41:00;;;;;;;12.55;6.85;;;18.40;99.90;;;;;;5068959;28;20051;-73
2023/07/28 04:43:26;;;;;;;15.55;7.68;;;18.40;99.90;;;;;;5081901;28;20146;-72
2023/07/28 04:45:52;;;;;;;17.38;6.45;;;18.40;99.90;;;;;;5054174;28;20059;-72
2023/07/28 04:48:19;;;;;;;15.07;6.47;;;18.40;99.90;;;;;;5084563;28;20555;-72
2023/07/28 04:50:45;;;;;;;15.10;6.45;;;18.40;99.90;;;;;;5051270;28;20058;-72
2023/07/28 04:53:11;;;;;;;15.02;6.63;;;18.40;99.90;;;;;;5086087;28;20036;-72
2023/07/28 04:55:36;;;;;;;18.33;7.03;;;18.40;99.90;;;;;;5086067;28;20529;-72
2023/07/28 04:58:02;;;;;;;19.17;6.30;;;18.40;99.90;;;;;;5086857;28;20052;-73
2023/07/28 05:00:28;;;;;;;12.95;6.50;;;18.40;99.90;;;;;;5088527;28;20860;-72
2023/07/28 05:02:54;;;;;;;14.30;5.72;;;18.40;99.90;;;;;;5081539;28;20051;-73
2023/07/28 05:05:20;;;;;;;13.68;6.13;;;18.40;99.90;;;;;;5080298;28;20117;-73
2023/07/28 05:07:45;;;;;;;15.35;5.75;;;18.40;99.90;;;;;;5089704;28;20090;-72
2023/07/28 05:10:11;;;;;;;17.25;6.43;;;18.40;99.90;;;;;;5072033;28;20040;-72
2023/07/28 05:12:37;;;;;;;16.92;6.70;;;18.40;99.90;;;;;;5088969;28;20055;-72
2023/07/28 05:15:04;;;;;;;15.38;6.65;;;18.40;99.90;;;;;;5090109;28;20135;-73
2023/07/28 05:17:30;;;;;;;17.15;7.05;;;18.40;99.90;;;;;;5083622;28;20043;-72
2023/07/28 05:19:55;;;;;;;18.48;7.47;;;18.40;99.90;;;;;;5085176;28;20189;-72
2023/07/28 05:22:21;;;;;;;14.68;7.00;;;18.40;99.90;;;;;;5084984;28;20044;-73
2023/07/28 05:24:47;;;;;;;17.42;7.55;;;18.40;99.90;;;;;;5085645;28;20044;-73
2023/07/28 05:27:13;;;;;;;18.25;7.78;;;18.40;99.90;;;;;;5077570;28;20048;-72
2023/07/28 05:29:38;;;;;;;14.23;7.05;;;18.40;99.90;;;;;;5074318;28;20106;-72
2023/07/28 05:32:06;;;;;;;17.58;6.93;;;18.40;99.90;;;;;;5082864;28;20033;-73
2023/07/28 05:34:32;;;;;;;16.42;6.93;;;18.40;99.90;;;;;;5084870;28;20113;-72
2023/07/28 05:36:58;;;;;;;15.20;6.75;;;18.40;99.90;;;;;;5083134;28;20043;-72
2023/07/28 05:39:24;;;;;;;20.38;7.38;;;18.40;99.90;;;;;;5083427;28;20076;-73
2023/07/28 05:41:50;;;;;;;15.15;7.22;;;18.50;99.90;;;;;;5083974;28;20074;-72
2023/07/28 05:44:15;;;;;;;15.55;7.40;;;18.50;99.90;;;;;;5083264;28;20048;-72
2023/07/28 05:46:41;;;;;;;14.43;6.82;;;18.50;99.90;;;;;;5083373;28;20486;-72
2023/07/28 05:49:07;;;;;;;16.88;6.80;;;18.50;99.90;;;;;;5084321;28;20111;-71
2023/07/28 05:51:33;;;;;;;16.88;7.18;;;18.50;99.90;;;;;;5083393;28;20059;-71
2023/07/28 05:53:59;;;;;;;17.50;7.63;;;18.50;99.90;;;;;;5084460;28;20035;-71
2023/07/28 05:56:25;;;;;;;12.40;7.22;;;18.50;99.90;;;;;;5071083;28;20068;-71
2023/07/28 05:58:51;;;;;;;16.55;7.93;;;18.50;99.90;;;;;;5084185;28;20816;-72
2023/07/28 06:01:18;;;;;;;17.10;7.07;;;18.50;99.90;;;;;;5083179;28;20043;-71
2023/07/28 06:03:43;;;;;;;16.42;7.75;;;18.50;99.90;;;;;;5086311;28;20126;-71
2023/07/28 06:06:09;;;;;;;15.60;7.07;;;18.60;99.90;;;;;;5075904;28;20052;-71
2023/07/28 06:08:35;;;;;;;16.55;7.65;;;18.60;99.90;;;;;;5080217;28;20123;-71
2023/07/28 06:11:05;;;;;;;14.40;7.43;;;18.50;99.90;;;;;;5081995;28;20074;-71
2023/07/28 06:13:31;;;;;;;16.13;7.70;;;18.60;99.90;;;;;;5081282;28;20080;-71
2023/07/28 06:15:58;;;;;;;15.40;7.75;;;18.60;99.90;;;;;;5083934;28;20082;-71
2023/07/28 06:18:24;;;;;;;12.43;7.90;;;18.60;99.90;;;;;;5076143;28;20037;-71
2023/07/28 06:20:49;;;;;;;15.27;8.48;;;18.60;99.90;;;;;;5088844;28;20454;-71
2023/07/28 06:23:15;;;;;;;16.17;8.57;;;18.60;99.90;;;;;;5087628;28;20036;-71
2023/07/28 06:25:44;;;;;;;13.00;8.02;;;18.60;99.90;;;;;;5087923;28;20122;-71
2023/07/28 06:28:13;;;;;;;15.13;9.25;;;18.60;99.90;;;;;;5086487;28;20166;-70
2023/07/28 06:30:39;;;;;;;12.02;8.27;;;18.70;99.90;;;;;;5088447;28;20525;-70
2023/07/28 06:33:06;;;;;;;14.43;8.52;;;18.70;99.90;;;;;;5087610;28;20044;-70
2023/07/28 06:35:32;;;;;;;13.32;8.88;;;18.70;99.90;;;;;;5068447;28;20040;-70
2023/07/28 06:38:02;;;;;;;15.18;9.13;;;18.70;99.90;;;;;;5068718;28;20044;-71
2023/07/28 06:40:28;;;;;;;13.93;8.10;;;18.70;99.90;;;;;;5070596;28;20052;-71
2023/07/28 06:42:53;;;;;;;11.52;8.70;;;18.70;99.90;;;;;;5070442;28;20698;-71
2023/07/28 06:45:20;;;;;;;14.07;9.55;;;18.70;99.90;;;;;;5087544;28;20119;-70
2023/07/28 06:47:46;;;;;;;13.30;9.38;;;18.70;99.90;;;;;;5086647;28;20047;-71
2023/07/28 06:50:12;;;;;;;13.80;9.73;;;18.80;99.90;;;;;;5085910;28;20036;-71
2023/07/28 06:52:38;;;;;;;13.95;9.07;;;18.90;99.90;;;;;;5085500;28;20452;-71
2023/07/28 06:55:04;;;;;;;12.07;8.35;;;18.90;99.90;;;;;;5085552;28;20048;-71
2023/07/28 06:57:31;;;;;;;13.20;8.65;;;19.00;99.90;;;;;;5088187;28;20044;-71
2023/07/28 06:59:57;;;;;;;11.48;8.07;;;19.00;99.90;;;;;;5088112;28;20146;-71
2023/07/28 07:02:23;;;;;;;10.80;7.85;;;19.00;99.90;;;;;;5071845;28;20052;-70
2023/07/28 07:04:49;;;;;;;10.32;7.30;;;19.00;99.90;;;;;;5086106;28;20047;-71
2023/07/28 07:07:14;;;;;;;11.07;8.00;;;19.00;99.90;;;;;;5085402;28;20044;-70
2023/07/28 07:09:40;;;;;;;11.00;7.43;;;19.00;99.90;;;;;;5087729;28;20501;-73
2023/07/28 07:12:08;;;;;;;10.20;6.88;;;19.00;99.90;;;;;;5078054;28;20048;-72
2023/07/28 07:14:34;;;;;;;12.10;6.82;;;19.00;99.90;;;;;;5087770;28;20400;-72
2023/07/28 07:17:00;;;;;;;9.35;6.50;;;19.00;99.90;;;;;;5079978;28;20070;-72
2023/07/28 07:19:28;;;;;;;12.20;6.65;;;18.90;99.90;;;;;;5081244;28;20119;-72
2023/07/28 07:21:55;;;;;;;11.35;7.32;;;19.00;99.90;;;;;;5085563;28;20040;-72
2023/07/28 07:24:21;;;;;;;11.82;7.82;;;19.00;99.90;;;;;;5081844;28;20829;-72
2023/07/28 07:26:46;;;;;;;12.43;8.02;;;19.00;99.90;;;;;;5071773;28;20039;-72
2023/07/28 07:29:12;;;;;;;10.68;8.05;;;19.00;99.90;;;;;;5082519;28;20123;-72
2023/07/28 07:31:38;;;;;;;13.70;8.77;;;19.00;99.90;;;;;;5085563;28;20159;-72
2023/07/28 07:34:04;;;;;;;11.18;7.97;;;19.00;99.90;;;;;;5084918;28;20036;-72
2023/07/28 07:36:31;;;;;;;12.85;8.63;;;19.00;99.90;;;;;;5085522;28;20547;-72
2023/07/28 07:38:57;;;;;;;11.35;9.18;;;19.00;99.90;;;;;;5086827;28;20048;-72
2023/07/28 07:41:23;;;;;;;10.75;8.98;;;19.00;99.90;;;;;;5081821;28;20032;-73
2023/07/28 07:43:50;;;;;;;13.27;9.18;;;19.00;99.90;;;;;;5082849;28;20459;-72
2023/07/28 07:46:16;;;;;;;11.20;8.93;;;19.10;99.90;;;;;;5082753;28;20487;-72
2023/07/28 07:48:42;;;;;;;10.75;8.10;;;19.10;99.90;;;;;;5085722;28;20032;-72
2023/07/28 07:51:08;;;;;;;11.98;8.13;;;19.20;99.90;;;;;;5083174;28;20045;-72
2023/07/28 07:53:36;;;;;;;9.80;8.27;;;19.20;99.90;;;;;;5074487;28;20077;-71
2023/07/28 07:56:03;;;;;;;9.75;7.93;;;19.20;99.90;;;;;;5073447;28;20055;-71
2023/07/28 07:58:29;;;;;;;11.40;8.32;;;19.20;99.90;;;;;;5082612;28;20051;-71
2023/07/28 08:00:55;;;;;;;11.70;8.43;;;19.30;99.90;;;;;;5076971;28;20040;-72
2023/07/28 08:03:21;;;;;;;9.65;8.05;;;19.30;99.90;;;;;;5085618;28;20044;-72
2023/07/28 08:05:47;;;;;;;11.93;8.10;;;19.30;99.90;;;;;;5085943;28;20048;-72
2023/07/28 08:08:16;;;;;;;12.70;7.68;;;19.30;99.90;;;;;;5083679;28;20044;-72
2023/07/28 08:10:46;;;;;;;10.05;8.07;;;19.40;99.90;;;;;;5070557;28;20130;-72
2023/07/28 08:13:11;;;;;;;10.43;7.68;;;19.40;99.90;;;;;;5074722;28;20750;-73
2023/07/28 08:15:37;;;;;;;11.02;7.38;;;19.40;99.90;;;;;;5079565;28;20044;-73
2023/07/28 08:18:03;;;;;;;10.02;7.43;;;19.40;99.90;;;;;;5075236;28;20040;-72
2023/07/28 08:20:29;;;;;;;11.15;7.80;;;19.40;99.90;;;;;;5076589;28;20435;-73
2023/07/28 08:22:55;;;;;;;10.93;7.32;;;19.40;99.90;;;;;;5080620;28;20045;-73
2023/07/28 08:25:23;;;;;;;10.73;7.35;;;19.40;99.90;;;;;;5076463;28;20533;-73
2023/07/28 08:27:49;;;;;;;9.93;7.13;;;19.50;99.90;;;;;;5071308;28;20069;-73
2023/07/28 08:30:15;;;;;;;10.93;6.72;;;19.50;99.90;;;;;;5070965;28;20460;-73
2023/07/28 08:32:42;;;;;;;8.98;6.85;;;19.50;99.90;;;;;;5078397;28;20047;-73
2023/07/28 08:35:09;;;;;;;10.13;6.88;;;19.50;99.90;;;;;;5066503;28;20514;-73
2023/07/28 08:37:34;;;;;;;8.90;6.53;;;19.50;99.90;;;;;;5086841;28;20040;-73
2023/07/28 08:40:00;;;;;;;8.60;6.30;;;19.50;99.90;;;;;;5074581;28;20074;-73
2023/07/28 08:42:28;;;;;;;8.48;6.45;;;19.60;99.90;;;;;;5074080;28;20785;-73
2023/07/28 08:44:54;;;;;;;8.85;6.68;;;19.60;99.90;;;;;;5070843;28;20119;-73
2023/07/28 08:47:21;;;;;;;8.45;6.40;;;19.60;99.90;;;;;;5071523;28;20044;-73
2023/07/28 08:49:47;;;;;;;10.40;6.20;;;19.60;99.90;;;;;;5080568;28;20502;-73
2023/07/28 08:52:16;;;;;;;8.75;6.45;;;19.60;99.90;;;;;;5079845;28;20456;-73
2023/07/28 08:54:43;;;;;;;8.45;5.80;;;19.70;99.90;;;;;;5072764;28;20453;-73
2023/07/28 08:57:10;;;;;;;10.48;5.28;;;19.80;99.90;;;;;;5075401;28;21409;-73
2023/07/28 08:59:38;;;;;;;8.32;5.50;;;19.80;99.90;;;;;;5073869;28;20082;-73
2023/07/28 09:02:06;;;;;;;10.13;5.30;;;19.80;99.90;;;;;;5053567;28;20047;-72
2023/07/28 09:04:32;;;;;;;8.73;5.00;;;19.90;99.90;;;;;;5076784;28;20122;-73
2023/07/28 09:06:58;;;;;;;7.72;4.40;;;20.00;99.90;;;;;;5076673;28;20447;-73
2023/07/28 09:09:23;;;;;;;6.88;4.80;;;20.10;99.90;;;;;;5076088;28;20126;-73
2023/07/28 09:11:51;;;;;;;10.00;4.90;;;20.10;99.90;;;;;;5075995;28;21248;-73
2023/07/28 09:14:19;;;;;;;7.45;4.45;;;20.10;99.90;;;;;;5073494;28;20043;-73
2023/07/28 09:16:46;;;;;;;8.75;4.40;;;20.20;99.90;;;;;;5074660;28;20044;-73
2023/07/28 09:19:12;;;;;;;6.25;3.85;;;20.30;99.90;;;;;;5079293;28;20549;-73
2023/07/28 09:21:40;;;;;;;8.15;4.63;;;20.40;99.90;;;;;;5079486;28;20125;-73
2023/07/28 09:24:07;;;;;;;6.97;4.20;;;20.50;99.90;;;;;;5077767;28;20051;-73
2023/07/28 09:26:40;;;;;;;6.40;3.88;;;20.50;99.90;;;;;;5084296;28;20047;-73
2023/07/28 09:29:20;;;;;;;6.30;3.58;;;20.50;99.90;;;;;;5081933;28;20039;-73
2023/07/28 09:31:47;;;;;;;6.00;3.10;;;20.60;99.90;;;;;;5082786;28;20417;-73
2023/07/28 09:34:27;;;;;;;7.07;3.30;;;20.60;99.90;;;;;;5072816;28;20454;-73
2023/07/28 09:37:00;;;;;;;6.85;2.90;;;20.70;99.90;;;;;;5084713;28;20678;-73
2023/07/28 09:39:26;;;;;;;6.18;3.13;;;20.80;99.90;;;;;;5082215;28;20047;-71
2023/07/28 09:41:53;;;;;;;5.75;3.00;;;20.80;99.90;;;;;;5086356;28;20047;-71
2023/07/28 09:44:19;;;;;;;6.85;2.78;;;20.80;99.90;;;;;;5086315;28;20138;-71
2023/07/28 09:46:53;;;;;;;7.55;3.17;;;20.80;99.90;;;;;;5069355;28;20044;-71
2023/07/28 09:49:30;;;;;;;5.90;3.30;;;20.90;99.90;;;;;;5084346;28;20032;-71
2023/07/28 09:52:05;;;;;;;6.75;3.28;;;20.90;99.90;;;;;;5074902;28;20048;-71
2023/07/28 09:54:36;;;;;;;7.07;3.53;;;20.90;99.90;;;;;;5085437;28;20101;-71
2023/07/28 09:57:04;;;;;;;6.32;3.40;;;20.90;99.90;;;;;;5086530;28;20047;-71
2023/07/28 09:59:35;;;;;;;5.18;2.85;;;20.90;99.90;;;;;;5078655;28;20068;-71
2023/07/28 10:02:02;;;;;;;5.38;2.72;;;20.90;99.90;;;;;;5083828;28;20040;-71
2023/07/28 10:04:29;;;;;;;5.28;3.10;;;20.90;99.90;;;;;;5087614;28;20040;-71
2023/07/28 10:06:56;;;;;;;10.75;3.20;;;20.80;99.90;;;;;;5083845;28;20097;-71
2023/07/28 10:09:26;;;;;;;5.82;3.25;;;20.80;99.90;;;;;;5080126;28;20040;-73
2023/07/28 10:11:53;;;;;;;5.32;3.20;;;20.80;99.90;;;;;;5080374;28;20109;-73
2023/07/28 10:14:30;;;;;;;7.80;3.47;;;20.90;99.90;;;;;;5081445;28;20119;-73
2023/07/28 10:16:59;;;;;;;5.10;2.72;;;21.00;99.90;;;;;;5079315;28;20056;-73
2023/07/28 10:19:28;;;;;;;5.97;2.55;;;21.00;99.90;;;;;;5081783;28;20044;-73
2023/07/28 10:22:08;;;;;;;10.32;2.42;;;21.00;99.90;;;;;;5077803;28;20527;-73
2023/07/28 10:25:00;;;;;;;6.30;2.33;;;21.10;99.90;;;;;;5085856;28;20166;-73
2023/07/28 10:27:36;;;;;;;8.68;2.40;;;21.10;99.90;;;;;;5070008;28;20052;-73
2023/07/28 10:30:11;;;;;;;4.93;2.30;;;21.10;99.90;;;;;;5085582;28;20067;-73
2023/07/28 10:32:43;;;;;;;4.75;2.20;;;21.10;99.90;;;;;;5085048;28;20056;-73
2023/07/28 10:35:11;;;;;;;4.25;2.08;;;21.20;99.90;;;;;;5087377;28;20406;-73
2023/07/28 10:37:38;;;;;;;5.28;2.10;;;21.30;99.90;;;;;;5087123;28;20642;-73
2023/07/28 10:40:28;;;;;;;7.03;2.15;;;21.40;99.90;;;;;;5079824;28;20068;-74
2023/07/28 10:42:54;;;;;;;4.50;2.13;;;21.50;99.90;;;;;;5076117;28;20572;-72
2023/07/28 10:45:25;;;;;;;5.07;2.28;;;21.60;99.90;;;;;;5078210;28;20111;-72
2023/07/28 10:47:52;;;;;;;5.30;1.77;;;21.60;99.90;;;;;;5087218;28;21260;-72
2023/07/28 10:50:19;;;;;;;3.40;1.80;;;21.70;99.90;;;;;;5083396;28;20405;-74
2023/07/28 10:52:46;;;;;;;6.13;1.85;;;21.80;99.90;;;;;;5082464;28;20132;-72
2023/07/28 10:55:16;;;;;;;5.93;1.85;;;21.80;99.90;;;;;;5085833;28;20047;-73
2023/07/28 10:57:43;;;;;;;6.60;1.83;;;21.90;99.90;;;;;;5081288;28;20051;-73
2023/07/28 11:00:12;;;;;;;5.50;1.90;;;21.90;99.90;;;;;;5083323;28;20032;-73
2023/07/28 11:02:43;;;;;;;9.90;2.13;;;21.90;99.90;;;;;;5077497;28;20408;-73
2023/07/28 11:05:19;;;;;;;4.05;1.70;;;21.90;99.90;;;;;;5080398;28;20045;-73
2023/07/28 11:07:45;;;;;;;7.90;1.70;;;21.90;99.90;;;;;;5080415;28;20040;-73
2023/07/28 11:10:12;;;;;;;5.45;2.00;;;21.90;99.90;;;;;;5078805;28;20044;-73
2023/07/28 11:12:43;;;;;;;4.28;1.98;;;21.90;99.90;;;;;;5073925;28;20040;-73
2023/07/28 11:15:13;;;;;;;5.88;2.05;;;21.90;99.90;;;;;;5075635;28;20040;-73
2023/07/28 11:17:49;;;;;;;5.63;1.92;;;21.90;99.90;;;;;;5076470;28;20048;-73
2023/07/28 11:20:20;;;;;;;6.43;2.45;;;22.00;99.90;;;;;;5075742;28;20036;-74
2023/07/28 11:22:54;;;;;;;4.95;1.73;;;22.20;99.90;;;;;;5081130;28;20063;-73
2023/07/28 11:25:21;;;;;;;5.63;2.10;;;22.20;99.90;;;;;;5081472;28;20047;-73
2023/07/28 11:27:47;;;;;;;3.75;1.67;;;22.30;99.90;;;;;;5082846;28;20115;-73
2023/07/28 11:30:15;;;;;;;4.75;1.60;;;22.30;99.90;;;;;;5077191;28;20155;-74
2023/07/28 11:32:44;;;;;;;4.20;1.55;;;22.30;99.90;;;;;;5072015;28;20109;-74
2023/07/28 11:35:12;;;;;;;3.58;1.33;;;22.40;99.90;;;;;;5076103;28;20040;-74
2023/07/28 11:37:40;;;;;;;3.08;1.58;;;22.40;99.90;;;;;;5081402;28;20552;-75
2023/07/28 11:40:08;;;;;;;4.60;1.58;;;22.50;99.90;;;;;;5082791;28;20050;-75
2023/07/28 11:42:45;;;;;;;4.93;1.50;;;22.60;99.90;;;;;;5082474;28;20051;-70
2023/07/28 11:45:13;;;;;;;2.53;1.35;;;22.70;99.90;;;;;;5079165;28;20119;-71
2023/07/28 11:47:39;;;;;;;3.45;1.52;;;22.80;99.90;;;;;;5077959;28;20500;-72
2023/07/28 11:50:05;;;;;;;4.72;1.60;;;22.80;99.90;;;;;;5080116;28;20044;-72
2023/07/28 11:52:37;;;;;;;5.20;1.40;;;22.80;99.90;;;;;;5074304;28;20452;-72
2023/07/28 11:55:06;;;;;;;3.88;1.45;;;22.80;99.90;;;;;;5075296;28;20047;-71
2023/07/28 11:57:32;;;;;;;3.33;1.40;;;22.90;99.90;;;;;;5073146;28;20036;-71
2023/07/28 11:59:59;;;;;;;3.90;1.50;;;22.90;99.90;;;;;;5075360;28;20500;-72
2023/07/28 12:02:26;;;;;;;3.65;1.33;;;22.80;99.90;;;;;;5070541;28;20043;-70
2023/07/28 12:04:54;;;;;;;2.75;1.30;;;22.80;99.90;;;;;;5070592;28;20040;-70
2023/07/28 12:07:33;;;;;;;2.95;1.38;;;22.80;99.90;;;;;;5064701;28;20051;-71
2023/07/28 12:10:06;;;;;;;2.97;1.40;;;22.90;99.90;;;;;;5061798;28;20063;-71
2023/07/28 12:12:39;;;;;;;3.53;1.50;;;22.90;99.90;;;;;;5068789;28;20051;-71
2023/07/28 12:15:18;;;;;;;3.67;1.20;;;23.00;99.90;;;;;;5067357;28;20523;-72
2023/07/28 12:18:19;;;;;;;3.30;1.50;;;23.00;99.90;;;;;;5073022;28;20071;-72
2023/07/28 12:20:47;;;;;;;4.78;1.40;;;23.00;99.90;;;;;;5071362;28;20122;-72
2023/07/28 12:23:23;;;;;;;5.30;1.50;;;23.00;99.90;;;;;;5068352;28;20074;-72
2023/07/28 12:25:50;;;;;;;3.13;1.40;;;23.00;99.90;;;;;;5071351;28;20516;-72
2023/07/28 12:28:16;;;;;;;3.67;1.40;;;23.10;99.90;;;;;;5067648;28;20156;-71
2023/07/28 12:30:43;;;;;;;2.42;1.20;;;23.20;99.90;;;;;;5072448;28;20744;-71
2023/07/28 12:33:09;;;;;;;3.35;1.42;;;23.20;99.90;;;;;;5071744;28;20052;-74
2023/07/28 12:35:35;;;;;;;4.18;1.30;;;23.30;99.90;;;;;;5072168;28;20101;-71
2023/07/28 12:38:04;;;;;;;2.03;1.20;;;23.30;99.90;;;;;;5070614;28;20048;-72
2023/07/28 12:40:31;;;;;;;4.43;1.38;;;23.40;99.90;;;;;;5074201;28;20123;-72